Time;durP1;ratioP1;P1;durP2;ratioP2;P2;SDS_P1;SDS_P2;PMS_P1;PMS_P2;Temp;Humidity;BMP_temperature;BMP_pressure;BME280_temperature;BME280_humidity;BME280_pressure;Samples;Min_cycle;Max_cycle;Signal;HPM_P1;HPM_P2
2022/09/19 00:01:56;;;;;;;1.57;1.40;;;10.00;96.60;;;10.05;63.43;95036.34;6175529;23;20456;-57
2022/09/19 00:04:25;;;;;;;1.67;1.47;;;10.00;96.70;;;10.03;63.46;95032.19;6176092;23;20421;-59
2022/09/19 00:06:53;;;;;;;2.20;1.37;;;10.00;96.80;;;10.00;63.34;95035.09;6175832;23;20961;-56
2022/09/19 00:09:22;;;;;;;4.60;2.77;;;10.00;96.90;;;9.98;63.66;95034.41;6177589;23;20492;-57
2022/09/19 00:11:50;;;;;;;1.50;1.40;;;10.00;97.00;;;9.96;63.74;95031.91;6178210;23;20488;-57
2022/09/19 00:14:21;;;;;;;1.47;1.33;;;9.90;97.50;;;9.93;63.61;95021.66;6179615;23;20437;-57
2022/09/19 00:16:48;;;;;;;2.40;1.53;;;9.90;97.40;;;9.84;63.65;95030.31;6177847;23;20901;-57
2022/09/19 00:19:17;;;;;;;1.10;1.00;;;9.90;97.60;;;9.77;63.79;95022.13;6177730;23;20449;-58
2022/09/19 00:21:47;;;;;;;1.63;1.33;;;9.80;97.60;;;9.74;63.97;95030.25;6178431;23;20402;-57
2022/09/19 00:27:03;;;;;;;3.23;1.80;;;9.70;97.80;;;9.68;64.21;95018.50;6178003;23;20389;-58
2022/09/19 00:29:30;;;;;;;1.33;1.23;;;9.70;97.90;;;9.66;64.09;95025.66;6178245;23;20958;-56
2022/09/19 00:31:57;;;;;;;2.80;1.20;;;9.60;98.00;;;9.61;64.51;95021.78;6178762;23;20850;-57
2022/09/19 00:34:25;;;;;;;3.93;1.70;;;9.70;98.20;;;9.63;64.31;95027.72;6177811;23;20954;-57
2022/09/19 00:36:54;;;;;;;1.53;1.43;;;9.60;98.10;;;9.62;64.37;95029.53;6178431;23;20413;-56
2022/09/19 00:39:21;;;;;;;1.50;1.40;;;9.60;98.20;;;9.60;64.52;95033.22;6177652;23;20461;-57
2022/09/19 00:41:49;;;;;;;1.60;1.50;;;9.60;98.20;;;9.56;64.72;95030.03;6177374;23;20484;-56
2022/09/19 00:44:52;;;;;;;1.50;1.40;;;9.60;98.40;;;9.55;65.19;95036.25;6177664;23;20430;-57
2022/09/19 00:47:24;;;;;;;1.57;1.47;;;9.60;98.70;;;9.54;64.49;95034.56;6176379;23;20569;-57
2022/09/19 00:49:51;;;;;;;2.07;1.33;;;9.50;98.50;;;9.55;64.68;95036.25;6178049;23;20733;-57
2022/09/19 00:52:27;;;;;;;1.90;1.40;;;9.50;98.70;;;9.55;64.71;95044.13;6177684;23;21107;-57
2022/09/19 00:54:56;;;;;;;2.00;1.87;;;9.50;98.70;;;9.54;64.92;95037.19;6178358;23;20952;-56
2022/09/19 00:57:24;;;;;;;1.97;1.80;;;9.50;98.60;;;9.50;64.92;95030.56;6175876;23;20986;-57
2022/09/19 00:59:51;;;;;;;1.50;1.30;;;9.50;98.60;;;9.47;64.76;95020.31;6175718;23;20464;-57
2022/09/19 01:02:21;;;;;;;1.47;1.37;;;9.50;98.70;;;9.45;65.05;95022.22;6177307;23;20459;-57
2022/09/19 01:04:48;;;;;;;1.63;1.53;;;9.50;99.00;;;9.44;65.29;95023.19;6176721;23;20425;-56
2022/09/19 01:07:24;;;;;;;2.03;1.30;;;9.40;98.90;;;9.43;65.33;95018.91;6177193;23;20800;-58
2022/09/19 01:09:55;;;;;;;1.23;1.13;;;9.40;99.00;;;9.42;65.04;95017.22;6177206;23;20445;-57
2022/09/19 01:12:31;;;;;;;3.37;1.23;;;9.40;99.10;;;9.39;65.69;95020.97;6177721;23;20521;-57
2022/09/19 01:15:19;;;;;;;2.17;1.50;;;9.40;99.20;;;9.40;65.43;95019.16;6176860;23;20511;-57
2022/09/19 01:17:48;;;;;;;1.47;1.37;;;9.40;99.30;;;9.39;65.61;95017.47;6177752;23;20898;-57
2022/09/19 01:20:39;;;;;;;1.53;1.40;;;9.40;99.30;;;9.37;65.72;95014.97;6177100;23;20981;-56
2022/09/19 01:23:48;;;;;;;2.10;1.80;;;9.40;99.40;;;9.36;66.27;95017.72;6177319;23;20983;-57
2022/09/19 01:26:34;;;;;;;1.87;1.50;;;9.30;99.50;;;9.32;66.18;95012.75;6120404;23;20443;-57
2022/09/19 01:29:07;;;;;;;1.90;1.80;;;9.30;99.60;;;9.31;65.39;95010.25;6177704;23;21280;-56
2022/09/19 01:31:36;;;;;;;1.80;1.70;;;9.30;99.50;;;9.24;65.66;95012.56;6177541;23;20477;-57
2022/09/19 01:34:07;;;;;;;1.50;1.40;;;9.20;99.40;;;9.21;65.90;95019.88;6177975;23;20500;-55
2022/09/19 01:36:36;;;;;;;2.17;1.97;;;9.20;99.50;;;9.18;65.85;95014.88;6177640;23;20389;-56
2022/09/19 01:39:04;;;;;;;3.17;1.93;;;9.20;99.60;;;9.16;65.81;95017.63;6177692;23;20421;-57
2022/09/19 01:41:32;;;;;;;2.03;1.83;;;9.20;99.60;;;9.17;65.84;95016.69;6177122;23;21020;-56
2022/09/19 01:44:05;;;;;;;2.10;2.00;;;9.20;99.70;;;9.17;65.97;95006.19;6176273;23;20847;-56
2022/09/19 01:46:40;;;;;;;1.80;1.70;;;9.10;99.90;;;9.18;65.87;95018.31;6176616;23;20390;-57
2022/09/19 01:49:15;;;;;;;2.73;1.83;;;9.10;99.90;;;9.18;65.87;95009.63;6176591;23;20974;-57
2022/09/19 01:51:45;;;;;;;1.77;1.67;;;9.10;99.90;;;9.19;65.98;95012.13;6177127;23;20393;-57
2022/09/19 01:54:27;;;;;;;1.47;1.37;;;9.10;99.90;;;9.20;65.89;95013.81;6177583;23;20424;-57
2022/09/19 01:57:01;;;;;;;2.23;1.23;;;9.20;99.90;;;9.21;65.92;95012.81;6177559;23;20390;-57
2022/09/19 01:59:43;;;;;;;1.23;1.13;;;9.20;99.90;;;9.22;65.75;95006.63;6176950;23;20426;-57
2022/09/19 02:02:21;;;;;;;1.53;1.43;;;9.20;99.90;;;9.21;66.07;94997.06;6176956;23;20398;-58
2022/09/19 02:04:51;;;;;;;1.70;1.60;;;9.20;99.90;;;9.21;65.90;95010.19;6176960;23;20488;-56
2022/09/19 02:07:22;;;;;;;2.83;2.13;;;9.20;99.90;;;9.20;66.18;95003.31;6177087;23;20417;-56
2022/09/19 02:09:54;;;;;;;1.70;1.43;;;9.20;99.90;;;9.17;66.05;94998.31;6177430;23;20472;-57
2022/09/19 02:12:22;;;;;;;2.23;1.60;;;9.20;99.90;;;9.13;65.88;94994.25;6176657;23;20477;-58
2022/09/19 02:14:54;;;;;;;3.73;2.60;;;9.10;99.90;;;9.09;65.91;94996.31;6177229;23;20475;-55
2022/09/19 02:17:24;;;;;;;2.37;2.17;;;9.10;99.90;;;9.06;66.04;94995.72;6177054;23;20389;-57
2022/09/19 02:19:53;;;;;;;1.93;1.73;;;9.00;99.70;;;8.99;65.79;94990.16;6176566;23;20432;-57
2022/09/19 02:22:23;;;;;;;4.67;2.00;;;9.00;99.60;;;8.94;65.99;94989.72;6176838;23;20406;-58
2022/09/19 02:24:51;;;;;;;1.77;1.50;;;9.00;99.80;;;8.90;66.27;94985.69;6177133;23;20805;-58
2022/09/19 02:27:21;;;;;;;1.73;1.50;;;8.90;99.80;;;8.88;66.61;94988.44;6176864;23;20429;-57
2022/09/19 02:29:52;;;;;;;3.53;2.47;;;8.90;99.90;;;8.86;66.26;94990.34;6176952;23;20434;-56
2022/09/19 02:32:19;;;;;;;2.37;2.23;;;8.90;99.90;;;8.86;66.41;94994.75;6176479;23;20401;-57
2022/09/19 02:34:49;;;;;;;5.70;2.57;;;8.90;99.90;;;8.84;66.20;94991.44;6176846;23;20432;-57
2022/09/19 02:37:21;;;;;;;4.47;2.77;;;8.80;99.90;;;8.79;66.52;94981.31;6176069;23;20405;-58
2022/09/19 02:39:51;;;;;;;8.63;2.10;;;8.80;99.90;;;8.73;66.47;94980.03;6176466;23;20479;-58
2022/09/19 02:42:22;;;;;;;5.23;2.43;;;8.80;99.90;;;8.69;66.76;94976.00;6175551;23;20421;-57
2022/09/19 02:45:02;;;;;;;2.30;2.10;;;8.70;99.90;;;8.66;66.43;94978.03;6175464;23;20448;-57
2022/09/19 02:47:33;;;;;;;3.90;2.00;;;8.60;99.90;;;8.65;66.88;94992.13;6176288;23;20704;-57
2022/09/19 02:50:07;;;;;;;2.80;1.93;;;8.60;99.90;;;8.64;66.36;94990.44;6176854;23;20988;-58
2022/09/19 02:52:34;;;;;;;1.73;1.63;;;8.60;99.90;;;8.61;66.19;94992.34;6176951;23;20394;-57
2022/09/19 02:55:04;;;;;;;3.77;1.90;;;8.60;99.90;;;8.59;66.69;94986.38;6176847;23;20425;-56
2022/09/19 02:57:31;;;;;;;5.83;2.10;;;8.60;99.90;;;8.61;66.48;94992.34;6176628;23;20420;-58
2022/09/19 02:59:58;;;;;;;2.03;1.93;;;8.60;99.90;;;8.63;66.88;94988.75;6176832;23;20493;-57
2022/09/19 03:02:28;;;;;;;2.13;1.90;;;8.60;99.90;;;8.63;66.96;94994.84;6176407;23;20419;-55
2022/09/19 03:04:59;;;;;;;3.07;1.60;;;8.60;99.90;;;8.64;66.42;94991.25;6176578;23;20491;-56
2022/09/19 03:07:30;;;;;;;2.03;1.93;;;8.60;99.90;;;8.64;66.69;94993.06;6176726;23;20472;-57
2022/09/19 03:10:03;;;;;;;3.13;1.83;;;8.60;99.90;;;8.64;66.83;94983.41;6176175;23;20429;-56
2022/09/19 03:12:37;;;;;;;4.60;2.80;;;8.60;99.90;;;8.64;67.05;94990.44;6175290;23;20393;-57
2022/09/19 03:15:06;;;;;;;2.20;2.00;;;8.60;99.90;;;8.66;66.88;94988.50;6176089;23;20428;-55
2022/09/19 03:17:37;;;;;;;2.30;2.10;;;8.70;99.90;;;8.65;67.27;94982.44;6176246;23;20409;-56
2022/09/19 03:20:05;;;;;;;2.33;2.10;;;8.70;99.90;;;8.64;66.93;94991.25;6175804;23;20953;-56
2022/09/19 03:22:34;;;;;;;2.87;2.57;;;8.70;99.90;;;8.65;66.66;94986.88;6174923;23;20402;-57
2022/09/19 03:25:02;;;;;;;2.20;2.00;;;8.70;99.90;;;8.65;66.99;94989.50;6175614;23;20788;-55
2022/09/19 03:27:30;;;;;;;1.77;1.67;;;8.70;99.90;;;8.64;67.44;94983.41;6175133;23;20412;-58
2022/09/19 03:29:57;;;;;;;2.27;1.70;;;8.70;99.90;;;8.63;66.60;94980.91;6175773;23;20440;-57
2022/09/19 03:32:26;;;;;;;3.20;2.27;;;8.60;99.90;;;8.63;66.76;94988.75;6174832;23;20409;-55
2022/09/19 03:34:55;;;;;;;3.40;2.33;;;8.60;99.90;;;8.61;67.06;94981.88;6176142;23;20432;-57
2022/09/19 03:37:22;;;;;;;4.60;2.50;;;8.60;99.90;;;8.60;66.85;94977.56;6176177;23;20409;-56
2022/09/19 03:39:51;;;;;;;4.50;2.30;;;8.60;99.90;;;8.56;66.38;94973.53;6176402;23;20429;-56
2022/09/19 03:42:20;;;;;;;3.33;3.03;;;8.60;99.90;;;8.50;66.72;94967.97;6175324;23;20534;-58
2022/09/19 03:44:47;;;;;;;4.47;2.80;;;8.60;99.90;;;8.48;67.25;94970.72;6176429;23;20429;-57
2022/09/19 03:47:15;;;;;;;2.80;2.60;;;8.50;99.90;;;8.45;67.05;94970.97;6177389;23;20400;-58
2022/09/19 03:49:43;;;;;;;11.17;3.70;;;8.50;99.90;;;8.41;67.02;94966.88;6177598;23;20425;-56
2022/09/19 03:52:10;;;;;;;10.73;5.23;;;8.40;99.90;;;8.35;67.02;94965.59;6178320;23;20483;-55
2022/09/19 03:54:38;;;;;;;6.80;2.83;;;8.40;99.90;;;8.30;67.16;94964.31;6177912;23;21021;-57
2022/09/19 03:57:07;;;;;;;10.03;2.07;;;8.30;99.90;;;8.29;67.19;94960.84;6177410;23;20406;-57
2022/09/19 03:59:35;;;;;;;4.87;3.63;;;8.30;99.90;;;8.29;66.82;94963.47;6176900;23;21021;-57
2022/09/19 04:02:02;;;;;;;4.17;2.80;;;8.30;99.90;;;8.30;66.81;94953.81;6176920;23;20445;-59
2022/09/19 04:04:29;;;;;;;7.73;2.67;;;8.30;99.90;;;8.30;66.99;94945.97;6176026;23;20495;-57
2022/09/19 04:06:56;;;;;;;5.80;2.73;;;8.30;99.90;;;8.29;67.44;94944.28;6177326;23;20509;-57
2022/09/19 04:09:25;;;;;;;8.30;3.00;;;8.30;99.90;;;8.28;67.14;94951.31;6177853;23;20822;-57
2022/09/19 04:11:53;;;;;;;3.10;2.47;;;8.30;99.90;;;8.27;66.83;94952.28;6177837;23;20406;-56
2022/09/19 04:14:23;;;;;;;2.70;2.50;;;8.30;99.90;;;8.26;67.01;94956.69;6177150;23;20768;-56
2022/09/19 04:16:50;;;;;;;8.03;2.53;;;8.30;99.90;;;8.26;67.00;94950.63;6177533;23;20409;-56
2022/09/19 04:19:18;;;;;;;8.53;2.97;;;8.30;99.90;;;8.24;66.73;94963.84;6177380;23;20421;-57
2022/09/19 04:21:46;;;;;;;3.57;2.50;;;8.30;99.90;;;8.24;66.66;94958.59;6177745;23;20445;-58
2022/09/19 04:24:14;;;;;;;4.40;3.80;;;8.30;99.90;;;8.25;67.46;94957.63;6177065;23;20498;-57
2022/09/19 04:26:43;;;;;;;5.70;2.77;;;8.30;99.90;;;8.23;67.13;94951.69;6177265;23;20417;-58
2022/09/19 04:29:11;;;;;;;5.37;3.33;;;8.30;99.90;;;8.20;66.83;94961.59;6177556;23;20444;-58
2022/09/19 04:31:39;;;;;;;14.60;3.50;;;8.20;99.90;;;8.17;66.69;94956.59;6177309;23;20405;-56
2022/09/19 04:34:07;;;;;;;10.63;3.70;;;8.20;99.90;;;8.13;66.72;94961.22;6175481;23;20965;-57
2022/09/19 04:36:34;;;;;;;10.03;3.67;;;8.20;99.90;;;8.14;67.51;94962.09;6177288;23;20957;-57
2022/09/19 04:39:02;;;;;;;9.30;3.80;;;8.20;99.90;;;8.14;67.17;94954.22;6177480;23;20436;-57
2022/09/19 04:41:33;;;;;;;8.80;3.60;;;8.20;99.90;;;8.15;66.92;94956.72;6177563;23;20449;-56
2022/09/19 04:44:01;;;;;;;7.90;3.90;;;8.20;99.90;;;8.19;67.34;94960.75;6175516;23;20973;-56
2022/09/19 04:46:28;;;;;;;9.63;4.37;;;8.20;99.90;;;8.23;67.67;94959.56;6176506;23;20409;-57
2022/09/19 04:48:57;;;;;;;11.73;4.20;;;8.20;99.90;;;8.28;67.60;94953.94;6176708;23;20425;-58
2022/09/19 04:51:25;;;;;;;6.10;3.43;;;8.30;99.90;;;8.33;67.30;94959.63;6177058;23;20592;-56
2022/09/19 04:53:53;;;;;;;11.43;4.30;;;8.30;99.90;;;8.38;67.02;94954.03;6176196;23;20425;-58
2022/09/19 04:56:20;;;;;;;8.20;4.27;;;8.40;99.90;;;8.42;66.94;94955.44;6176714;23;20489;-57
2022/09/19 04:58:48;;;;;;;8.33;4.43;;;8.40;99.90;;;8.50;67.14;94958.31;6174740;23;20425;-57
2022/09/19 05:01:15;;;;;;;7.47;4.87;;;8.50;99.90;;;8.72;66.78;94953.91;6177034;23;20507;-56
2022/09/19 05:03:43;;;;;;;14.87;4.90;;;8.70;99.90;;;8.95;66.45;94949.41;6175952;23;20436;-57
2022/09/19 05:06:12;;;;;;;9.33;4.53;;;8.90;99.90;;;9.25;65.93;94959.13;6177376;23;20452;-57
2022/09/19 05:08:40;;;;;;;11.47;5.20;;;9.20;99.90;;;9.48;65.58;94953.69;6176933;23;20445;-58
2022/09/19 05:11:08;;;;;;;11.27;6.50;;;9.40;99.90;;;9.59;65.31;94956.25;6177390;23;20401;-56
2022/09/19 05:13:37;;;;;;;17.33;6.07;;;9.50;99.80;;;9.69;64.70;94956.28;6177053;23;20405;-58
2022/09/19 05:16:05;;;;;;;13.90;5.80;;;9.70;99.70;;;9.75;64.55;94961.00;6177076;23;20914;-57
2022/09/19 05:18:35;;;;;;;12.20;5.00;;;9.70;99.50;;;9.78;64.81;94968.63;6175765;23;20402;-58
2022/09/19 05:21:05;;;;;;;16.43;4.77;;;9.80;99.30;;;9.77;64.21;94972.22;6177195;23;20449;-57
2022/09/19 05:23:34;;;;;;;13.90;4.30;;;9.80;99.20;;;9.76;64.32;94980.22;6176869;23;20424;-57
2022/09/19 05:26:04;;;;;;;8.90;3.93;;;9.70;99.00;;;9.74;64.13;94980.34;6177004;23;20480;-57
2022/09/19 05:28:31;;;;;;;8.43;3.70;;;9.80;98.90;;;9.74;64.05;94979.53;6176754;23;21094;-57
2022/09/19 05:31:04;;;;;;;4.07;3.40;;;9.70;98.80;;;9.73;64.06;94973.47;6177101;23;20523;-56
2022/09/19 05:33:31;;;;;;;4.80;3.80;;;9.70;98.70;;;9.68;63.91;94971.22;6175621;23;20475;-57
2022/09/19 05:36:00;;;;;;;5.60;3.77;;;9.70;98.70;;;9.69;64.09;94977.28;6177533;23;20406;-57
2022/09/19 05:38:27;;;;;;;19.37;5.27;;;9.70;98.80;;;9.72;63.82;94976.22;6176163;23;20393;-57
2022/09/19 05:40:56;;;;;;;14.73;4.70;;;9.70;98.70;;;9.76;63.75;94981.06;6177221;23;20483;-58
2022/09/19 05:43:24;;;;;;;13.93;4.37;;;9.70;98.60;;;9.83;63.20;94978.75;6176788;23;20402;-58
2022/09/19 05:45:52;;;;;;;10.43;3.60;;;9.80;98.50;;;9.94;63.36;94983.88;6177313;23;20405;-57
2022/09/19 05:48:19;;;;;;;15.40;3.50;;;9.90;98.50;;;10.10;63.22;94988.66;6177008;23;20452;-58
2022/09/19 05:50:47;;;;;;;9.30;4.03;;;10.00;98.00;;;10.27;63.03;94984.56;6176951;23;20422;-59
2022/09/19 05:56:01;;;;;;;12.83;3.53;;;10.40;97.80;;;10.80;62.02;94977.28;6176798;23;20396;-57
2022/09/19 05:58:29;;;;;;;12.13;5.60;;;10.60;97.40;;;11.07;62.53;94979.22;6176339;23;20504;-57
2022/09/19 06:00:56;;;;;;;13.15;4.80;;;10.80;98.00;;;11.37;62.67;94986.13;6176428;23;20405;-57
2022/09/19 06:03:23;;;;;;;8.00;4.17;;;11.10;98.30;;;11.70;62.09;94975.22;6175192;23;20412;-57
2022/09/19 06:05:52;;;;;;;21.53;4.40;;;11.40;97.90;;;12.06;61.26;94975.38;6176301;23;20507;-57
2022/09/19 06:08:21;;;;;;;7.77;4.20;;;11.70;97.50;;;12.40;60.43;94974.75;6176176;23;20485;-58
2022/09/19 06:10:48;;;;;;;14.80;5.47;;;12.10;97.00;;;12.72;59.86;94983.00;6176821;23;20418;-59
2022/09/19 06:13:19;;;;;;;14.33;4.33;;;12.40;96.70;;;13.05;59.32;94972.72;6176510;23;20425;-58
2022/09/19 06:15:46;;;;;;;9.50;3.83;;;12.70;96.00;;;13.40;58.66;94983.41;6176634;23;20414;-57
2022/09/19 06:18:13;;;;;;;5.00;3.40;;;13.00;95.60;;;13.72;57.88;94968.78;6176184;23;20428;-58
2022/09/19 06:20:41;;;;;;;18.00;3.40;;;13.30;95.00;;;13.96;56.82;94971.53;6176514;23;20965;-56
2022/09/19 06:23:10;;;;;;;11.03;3.40;;;13.60;94.10;;;14.22;56.46;94978.59;6176272;23;20535;-59
2022/09/19 06:25:38;;;;;;;9.63;2.87;;;13.90;93.70;;;14.48;55.79;94977.69;6177347;23;20499;-59
2022/09/19 06:28:10;;;;;;;16.60;4.00;;;14.20;93.00;;;14.76;55.06;94977.44;6176111;23;20405;-57
2022/09/19 06:30:39;;;;;;;10.17;4.20;;;14.40;92.50;;;15.06;54.30;94976.81;6176291;23;20433;-58
2022/09/19 06:33:07;;;;;;;8.80;4.50;;;14.70;92.10;;;15.37;53.93;94981.47;6174730;23;20480;-59
2022/09/19 06:35:34;;;;;;;21.27;3.60;;;15.00;91.50;;;15.69;53.61;94977.13;6176471;23;20480;-58
2022/09/19 06:38:03;;;;;;;10.03;2.97;;;15.30;91.30;;;16.01;53.07;94978.06;6176957;23;20509;-58
2022/09/19 06:40:31;;;;;;;14.27;4.30;;;15.60;90.90;;;16.31;52.54;94972.97;6176142;23;20417;-59
2022/09/19 06:43:01;;;;;;;15.77;4.97;;;15.90;90.20;;;16.61;51.69;94978.47;6175667;23;20448;-58
2022/09/19 06:45:30;;;;;;;13.57;3.30;;;16.20;89.40;;;16.91;50.86;94971.50;6176725;23;20749;-60
2022/09/19 06:47:59;;;;;;;14.17;3.80;;;16.60;88.20;;;17.26;50.29;94971.91;6176808;23;20406;-58
2022/09/19 06:50:27;;;;;;;20.20;4.00;;;16.90;87.10;;;17.59;50.54;94971.63;6177034;23;20511;-57
2022/09/19 06:52:54;;;;;;;13.37;3.43;;;17.20;86.30;;;17.90;49.79;94968.84;6176373;23;20962;-58
2022/09/19 06:55:23;;;;;;;17.13;4.40;;;17.50;84.80;;;18.17;48.77;94961.25;6175945;23;20429;-59
2022/09/19 06:57:58;;;;;;;15.03;5.20;;;17.80;82.90;;;18.37;47.64;94966.00;6175395;23;20410;-57
2022/09/19 07:00:26;;;;;;;6.70;3.03;;;18.00;80.20;;;18.50;47.83;94965.31;6175904;23;20421;-58
2022/09/19 07:02:55;;;;;;;10.83;3.47;;;18.10;79.20;;;18.70;47.18;94965.56;6174701;23;20820;-60
2022/09/19 07:05:23;;;;;;;3.50;3.00;;;18.20;79.60;;;18.99;45.87;94959.34;6175777;23;20464;-57
2022/09/19 07:07:52;;;;;;;5.20;3.13;;;18.50;76.60;;;19.33;46.32;94952.47;6176307;23;20509;-58
2022/09/19 07:10:20;;;;;;;11.60;2.53;;;18.80;76.50;;;19.72;46.49;94959.16;6176232;23;20429;-58
2022/09/19 07:12:55;;;;;;;8.07;3.10;;;19.20;76.80;;;20.16;45.41;94958.03;6175976;23;20405;-56
2022/09/19 07:15:22;;;;;;;20.23;4.77;;;19.70;74.80;;;20.57;44.81;94948.34;6175859;23;20511;-58
2022/09/19 07:17:50;;;;;;;7.60;3.53;;;20.00;73.90;;;20.98;44.16;94955.50;6176186;23;20433;-57
2022/09/19 07:20:17;;;;;;;9.13;3.80;;;20.50;72.40;;;21.41;43.41;94955.13;6175931;23;20437;-57
2022/09/19 07:22:47;;;;;;;11.90;3.87;;;20.90;70.90;;;21.80;42.87;94952.69;6175690;23;20528;-58
2022/09/19 07:25:15;;;;;;;12.97;3.30;;;21.30;69.50;;;22.30;43.20;94949.50;6175493;23;20428;-58
2022/09/19 07:27:42;;;;;;;14.40;3.93;;;21.70;70.30;;;22.82;42.43;94949.50;6175825;23;20762;-57
2022/09/19 07:30:11;;;;;;;7.20;3.90;;;22.20;69.00;;;23.32;42.18;94951.53;6176479;23;20425;-57
2022/09/19 07:32:38;;;;;;;11.03;3.73;;;22.70;67.70;;;23.80;41.23;94940.19;6175857;23;20410;-59
2022/09/19 07:35:07;;;;;;;16.67;3.10;;;23.30;65.90;;;24.32;40.10;94934.50;6175683;23;21016;-58
2022/09/19 07:37:34;;;;;;;5.90;3.30;;;23.80;63.90;;;24.77;38.80;94944.13;6176109;23;20817;-58
2022/09/19 07:40:03;;;;;;;10.10;2.67;;;24.30;59.40;;;25.11;38.22;94944.50;6175985;23;20468;-55
2022/09/19 07:42:31;;;;;;;5.27;3.23;;;24.80;59.20;;;25.41;37.56;94950.72;6176186;23;20448;-57
2022/09/19 07:44:58;;;;;;;15.97;3.30;;;25.20;56.80;;;25.69;37.14;94941.16;6175322;23;20433;-57
2022/09/19 07:47:28;;;;;;;5.00;3.53;;;25.60;56.30;;;26.01;37.29;94943.56;6175905;23;20444;-58
2022/09/19 07:49:55;;;;;;;7.00;4.00;;;25.90;55.80;;;26.38;35.97;94937.88;6176270;23;20471;-57
2022/09/19 07:52:23;;;;;;;8.70;4.13;;;26.30;54.00;;;26.69;35.22;94935.84;6176355;23;20791;-58
2022/09/19 07:54:50;;;;;;;6.33;3.20;;;26.60;52.80;;;26.85;35.17;94931.59;6176126;23;20830;-57
2022/09/19 07:57:19;;;;;;;10.43;3.03;;;26.80;52.50;;;27.08;35.11;94925.28;6175788;23;20405;-57
2022/09/19 07:59:47;;;;;;;16.13;4.30;;;27.00;51.90;;;27.30;34.53;94919.19;6175841;23;20481;-58
2022/09/19 08:02:15;;;;;;;3.83;3.30;;;27.20;50.70;;;27.39;32.83;94920.44;6176118;23;20531;-57
2022/09/19 08:04:42;;;;;;;8.50;3.63;;;27.30;48.30;;;27.36;33.47;94924.44;6176197;23;20440;-61
2022/09/19 08:07:10;;;;;;;15.30;3.90;;;27.30;49.10;;;27.33;33.74;94918.72;6175877;23;20922;-58
2022/09/19 08:09:37;;;;;;;6.57;3.27;;;27.30;49.00;;;27.34;33.69;94925.75;6175728;23;20433;-58
2022/09/19 08:12:05;;;;;;;6.93;3.27;;;27.30;48.80;;;27.49;33.64;94912.50;6176198;23;20464;-60
2022/09/19 08:14:34;;;;;;;7.20;2.60;;;27.50;48.70;;;27.78;33.28;94912.41;6175279;23;20439;-58
2022/09/19 08:17:02;;;;;;;7.23;3.20;;;27.80;48.60;;;28.07;33.04;94899.63;6175672;23;20473;-58
2022/09/19 08:19:29;;;;;;;12.17;3.23;;;28.10;47.80;;;28.29;30.77;94906.97;6176911;23;20777;-58
2022/09/19 08:21:58;;;;;;;8.33;3.90;;;28.30;45.40;;;28.40;32.26;94905.22;6176769;23;20495;-57
2022/09/19 08:24:25;;;;;;;7.77;3.97;;;28.40;45.80;;;28.50;31.01;94907.22;6175594;23;20440;-58
2022/09/19 08:26:56;;;;;;;4.53;3.83;;;28.50;44.70;;;28.50;30.64;94902.59;6176763;23;20476;-58
2022/09/19 08:29:23;;;;;;;5.70;3.70;;;28.60;44.10;;;28.58;31.33;94901.34;6176411;23;20495;-59
2022/09/19 08:31:53;;;;;;;7.93;3.93;;;28.60;44.30;;;28.70;31.12;94901.25;6177226;23;20421;-60
2022/09/19 08:34:21;;;;;;;6.17;3.03;;;28.60;44.30;;;28.79;30.34;94899.75;6177347;23;20429;-57
2022/09/19 08:36:48;;;;;;;3.53;3.23;;;28.60;44.30;;;28.84;30.82;94901.69;6178016;23;20409;-58
2022/09/19 08:39:16;;;;;;;4.03;3.37;;;28.60;43.80;;;28.88;30.41;94902.81;6177326;23;20945;-57
2022/09/19 08:41:57;;;;;;;4.50;3.30;;;28.60;43.70;;;28.97;30.21;94895.88;6177586;23;20867;-57
2022/09/19 08:44:29;;;;;;;4.93;3.03;;;28.70;43.60;;;29.04;30.32;94891.06;6177195;23;20421;-58
2022/09/19 08:47:04;;;;;;;9.63;4.40;;;28.70;43.20;;;29.09;29.46;94899.22;6177066;23;20421;-57
2022/09/19 08:49:33;;;;;;;8.40;3.93;;;28.70;42.90;;;29.13;29.87;94894.13;6177299;23;20413;-59
2022/09/19 08:52:02;;;;;;;6.77;3.03;;;28.80;42.70;;;29.18;29.22;94902.31;6177304;23;20404;-58
2022/09/19 08:54:32;;;;;;;12.60;3.00;;;28.80;42.50;;;29.21;29.78;94901.03;6177304;23;20421;-57
2022/09/19 08:56:59;;;;;;;8.93;2.90;;;28.80;42.60;;;29.24;29.90;94893.19;6177657;23;20405;-56
2022/09/19 08:59:31;;;;;;;5.60;3.37;;;28.80;42.40;;;29.19;28.71;94895.81;6177214;23;20428;-58
2022/09/19 09:02:07;;;;;;;4.90;2.97;;;28.80;40.10;;;28.90;29.44;94887.94;6177216;23;20508;-58
2022/09/19 09:04:35;;;;;;;7.90;2.63;;;28.60;41.40;;;28.83;28.23;94883.78;6177853;23;20427;-58
2022/09/19 09:07:18;;;;;;;5.13;2.63;;;28.40;40.80;;;28.81;29.17;94881.34;6176567;23;20405;-58
2022/09/19 09:10:07;;;;;;;13.87;2.90;;;28.40;41.60;;;28.83;28.66;94879.22;6176793;23;20977;-58
2022/09/19 09:12:40;;;;;;;5.70;2.70;;;28.40;41.60;;;28.92;28.69;94872.28;6177269;23;20471;-57
2022/09/19 09:15:14;;;;;;;6.20;2.17;;;28.40;41.50;;;28.96;28.88;94873.38;6176803;23;20495;-58
2022/09/19 09:17:47;;;;;;;3.23;1.97;;;28.50;41.30;;;28.97;28.53;94875.03;6177504;23;20424;-56
2022/09/19 09:20:28;;;;;;;3.67;2.40;;;28.50;41.30;;;29.03;28.52;94872.34;6176986;23;20953;-59
2022/09/19 09:23:05;;;;;;;4.80;3.00;;;28.50;41.30;;;29.11;28.14;94859.19;6177357;23;20786;-58
2022/09/19 09:25:33;;;;;;;7.00;2.40;;;28.50;40.70;;;29.15;28.03;94848.63;6176934;23;20424;-57
2022/09/19 09:28:06;;;;;;;5.13;2.83;;;28.60;40.60;;;29.19;27.96;94844.34;6176831;23;20520;-57
2022/09/19 09:30:35;;;;;;;4.53;2.53;;;28.70;40.50;;;29.28;28.57;94833.88;6177396;23;20618;-59
2022/09/19 09:33:12;;;;;;;7.43;2.70;;;28.80;40.30;;;29.41;27.70;94828.03;6176584;23;20413;-58
2022/09/19 09:35:41;;;;;;;9.57;4.30;;;28.90;40.20;;;29.56;27.78;94819.22;6177199;23;20953;-57
2022/09/19 09:38:22;;;;;;;28.33;4.20;;;29.00;39.90;;;29.60;26.53;94822.19;6176768;23;20965;-58
2022/09/19 09:43:45;;;;;;;13.90;2.60;;;29.00;39.70;;;29.44;27.92;94824.00;6176706;23;20479;-56
2022/09/19 09:46:18;;;;;;;5.93;3.33;;;29.00;38.80;;;29.20;27.54;94818.09;6176237;23;20397;-58
2022/09/19 09:48:52;;;;;;;5.47;3.30;;;28.70;38.70;;;28.84;27.59;94818.56;6176481;23;20479;-58
2022/09/19 09:51:32;;;;;;;10.73;3.43;;;28.40;38.80;;;28.55;27.75;94807.97;6176319;23;20480;-58
2022/09/19 09:57:08;;;;;;;4.00;2.53;;;27.80;39.40;;;28.02;28.26;94796.00;6176424;23;20463;-58
2022/09/19 10:05:17;;;;;;;11.33;3.67;;;27.50;40.70;;;28.26;28.77;94794.66;6177176;23;20440;-59
2022/09/19 10:07:50;;;;;;;12.27;3.10;;;27.70;40.80;;;28.42;28.63;94797.53;6177378;23;20456;-59
2022/09/19 10:10:19;;;;;;;7.73;3.23;;;27.80;40.50;;;28.54;28.54;94790.09;6177265;23;20428;-58
2022/09/19 10:12:50;;;;;;;8.43;2.77;;;27.90;40.40;;;28.71;27.95;94784.63;6176819;23;20430;-58
2022/09/19 10:15:21;;;;;;;8.57;3.13;;;28.10;40.30;;;28.84;27.87;94794.19;6176575;23;20425;-58
2022/09/19 10:17:53;;;;;;;6.40;2.53;;;28.20;39.40;;;28.85;28.09;94779.59;6176889;23;20394;-58
2022/09/19 10:20:29;;;;;;;7.47;3.20;;;28.20;39.80;;;28.89;27.99;94780.72;6177743;23;21159;-57
2022/09/19 10:22:56;;;;;;;5.87;3.00;;;28.30;39.80;;;28.98;28.04;94773.75;6177307;23;20455;-57
2022/09/19 10:25:26;;;;;;;3.43;2.73;;;28.40;39.70;;;28.87;28.18;94777.44;6177198;23;20512;-58
2022/09/19 10:27:53;;;;;;;5.80;2.77;;;28.40;39.50;;;28.65;28.13;94774.81;6176830;23;20405;-59
2022/09/19 10:30:24;;;;;;;5.13;3.03;;;28.20;38.90;;;28.56;28.08;94762.78;6177327;23;20424;-58
2022/09/19 10:32:52;;;;;;;6.87;2.57;;;28.10;39.30;;;28.62;28.52;94772.63;6176827;23;20416;-57
2022/09/19 10:35:29;;;;;;;6.37;2.20;;;28.10;39.60;;;28.71;27.52;94756.75;6176923;23;21016;-58
2022/09/19 10:38:05;;;;;;;5.47;2.80;;;28.10;39.30;;;28.74;27.84;94757.03;6177054;23;20393;-57
2022/09/19 10:40:33;;;;;;;5.10;2.90;;;28.20;39.40;;;28.65;27.74;94746.94;6178018;23;20491;-57
2022/09/19 10:43:01;;;;;;;6.03;2.93;;;28.10;38.20;;;28.45;27.29;94748.34;6176574;23;20580;-58
2022/09/19 10:45:29;;;;;;;4.30;2.70;;;28.00;38.20;;;28.35;27.98;94737.41;6176860;23;20487;-58
2022/09/19 10:48:00;;;;;;;8.77;2.87;;;27.90;39.00;;;28.26;28.26;94740.56;6177255;23;20479;-57
2022/09/19 10:50:29;;;;;;;5.53;2.23;;;27.70;38.90;;;28.22;26.46;94734.00;6177465;23;20426;-58
2022/09/19 10:53:01;;;;;;;3.80;2.70;;;27.70;37.10;;;28.16;27.05;94731.53;6177788;23;20437;-58
2022/09/19 10:55:32;;;;;;;4.27;2.87;;;27.60;37.90;;;28.12;27.51;94731.22;6177426;23;20421;-57